Time;durP1;ratioP1;P1;durP2;ratioP2;P2;SDS_P1;SDS_P2;PMS_P1;PMS_P2;Temp;Humidity;BMP_temperature;BMP_pressure;BME280_temperature;BME280_humidity;BME280_pressure;Samples;Min_cycle;Max_cycle;Signal;HPM_P1;HPM_P2
2023/07/31 00:02:02;;;;;;;2.73;2.20;;;;;;;;;;5055371;28;20184;-83
2023/07/31 00:04:28;;;;;;;3.13;2.10;;;;;;;;;;5038998;28;20228;-84
2023/07/31 00:06:54;;;;;;;3.70;2.20;;;;;;;;;;5039002;28;20184;-84
2023/07/31 00:09:20;;;;;;;2.40;2.20;;;;;;;;;;5038958;28;20252;-83
2023/07/31 00:11:46;;;;;;;2.90;2.60;;;;;;;;;;5039158;28;20269;-83
2023/07/31 00:14:12;;;;;;;4.67;2.60;;;;;;;;;;5055617;28;20199;-83
2023/07/31 00:16:38;;;;;;;3.00;2.70;;;;;;;;;;5055582;28;20198;-83
2023/07/31 00:19:04;;;;;;;2.90;2.70;;;;;;;;;;5038920;28;20179;-83
2023/07/31 00:21:32;;;;;;;3.10;2.80;;;;;;;;;;5038742;28;20176;-83
2023/07/31 00:23:58;;;;;;;2.97;2.63;;;;;;;;;;5038842;28;20183;-83
2023/07/31 00:26:24;;;;;;;4.03;2.50;;;;;;;;;;5038971;28;20176;-83
2023/07/31 00:28:50;;;;;;;2.90;2.60;;;;;;;;;;5034896;28;20207;-83
2023/07/31 00:31:19;;;;;;;3.70;2.33;;;;;;;;;;5043979;28;20184;-83
2023/07/31 00:33:45;;;;;;;2.73;2.53;;;;;;;;;;5054788;28;20211;-83
2023/07/31 00:36:11;;;;;;;3.50;2.57;;;;;;;;;;5055008;28;20180;-84
2023/07/31 00:38:40;;;;;;;2.90;2.57;;;;;;;;;;5055016;28;20184;-84
2023/07/31 00:41:06;;;;;;;2.83;2.60;;;;;;;;;;5038388;28;20176;-84
2023/07/31 00:43:32;;;;;;;3.13;2.80;;;;;;;;;;5054323;28;20184;-84
2023/07/31 00:45:58;;;;;;;5.13;3.13;;;;;;;;;;5034481;28;20176;-83
2023/07/31 00:48:24;;;;;;;4.97;3.33;;;;;;;;;;5035136;28;20181;-83
2023/07/31 00:50:50;;;;;;;4.37;3.50;;;;;;;;;;5034731;28;20208;-84
2023/07/31 00:53:16;;;;;;;13.10;5.80;;;;;;;;;;5043974;28;20229;-84
2023/07/31 00:55:43;;;;;;;12.70;7.10;;;;;;;;;;5037995;28;20184;-84
2023/07/31 00:58:11;;;;;;;14.10;7.40;;;;;;;;;;5054290;28;20199;-84
2023/07/31 01:00:37;;;;;;;27.40;9.47;;;;;;;;;;5054187;28;20202;-83
2023/07/31 01:03:03;;;;;;;27.70;10.93;;;;;;;;;;5054287;28;20176;-83
2023/07/31 01:05:34;;;;;;;26.47;11.30;;;;;;;;;;5054008;28;20180;-84
2023/07/31 01:08:05;;;;;;;32.77;12.40;;;;;;;;;;5053733;28;20179;-84
2023/07/31 01:10:37;;;;;;;44.17;14.90;;;;;;;;;;5054055;28;20183;-84
2023/07/31 01:13:04;;;;;;;33.17;14.47;;;;;;;;;;5053993;28;20172;-83
2023/07/31 01:15:30;;;;;;;43.20;16.57;;;;;;;;;;5037495;28;20207;-83
2023/07/31 01:17:56;;;;;;;38.70;15.57;;;;;;;;;;5054272;28;20180;-83
2023/07/31 01:20:23;;;;;;;39.27;15.10;;;;;;;;;;5053993;28;20184;-83
2023/07/31 01:22:58;;;;;;;39.67;15.40;;;;;;;;;;5034289;28;20277;-83
2023/07/31 01:25:27;;;;;;;40.67;16.03;;;;;;;;;;5051993;28;20182;-83
2023/07/31 01:28:05;;;;;;;45.77;15.93;;;;;;;;;;5034065;28;20196;-83
2023/07/31 01:30:35;;;;;;;34.40;15.10;;;;;;;;;;5039209;28;20179;-83
2023/07/31 01:33:06;;;;;;;43.83;15.40;;;;;;;;;;5053501;28;20176;-83
2023/07/31 01:35:32;;;;;;;37.87;14.87;;;;;;;;;;5053521;28;20180;-83
2023/07/31 01:38:01;;;;;;;43.53;15.37;;;;;;;;;;5034005;28;20180;-82
2023/07/31 01:40:27;;;;;;;41.83;14.97;;;;;;;;;;5047005;28;20173;-83
2023/07/31 01:42:53;;;;;;;36.63;15.13;;;;;;;;;;5050097;28;20271;-83
2023/07/31 01:45:21;;;;;;;40.57;14.27;;;;;;;;;;5026692;28;20187;-82
2023/07/31 01:47:47;;;;;;;39.60;14.27;;;;;;;;;;5052469;28;20263;-83
2023/07/31 01:50:13;;;;;;;31.90;13.87;;;;;;;;;;5036009;28;20187;-82
2023/07/31 01:52:39;;;;;;;33.33;14.00;;;;;;;;;;5036226;28;20184;-82
2023/07/31 01:55:08;;;;;;;40.43;13.70;;;;;;;;;;5052891;28;20196;-83
2023/07/31 01:57:34;;;;;;;34.90;12.40;;;;;;;;;;5037055;28;20204;-82
2023/07/31 02:00:00;;;;;;;34.63;14.20;;;;;;;;;;5053318;28;20183;-83
2023/07/31 02:02:28;;;;;;;35.63;13.27;;;;;;;;;;5052859;28;20187;-83
2023/07/31 02:04:54;;;;;;;29.90;12.87;;;;;;;;;;5047502;28;20184;-83
2023/07/31 02:07:20;;;;;;;31.90;13.00;;;;;;;;;;5036905;28;20188;-83
2023/07/31 02:09:47;;;;;;;30.10;12.53;;;;;;;;;;5053058;28;20179;-83
2023/07/31 02:12:16;;;;;;;35.57;13.00;;;;;;;;;;5036664;28;20184;-83
2023/07/31 02:14:43;;;;;;;27.53;12.50;;;;;;;;;;5052998;28;20204;-83
2023/07/31 02:17:09;;;;;;;28.00;11.93;;;;;;;;;;5052732;28;20176;-83
2023/07/31 02:19:37;;;;;;;27.53;11.97;;;;;;;;;;5035263;28;20184;-83
2023/07/31 02:22:03;;;;;;;32.53;12.17;;;;;;;;;;5052913;28;20230;-82
2023/07/31 02:24:29;;;;;;;28.40;12.00;;;;;;;;;;5053116;28;20184;-82
2023/07/31 02:26:58;;;;;;;30.33;11.60;;;;;;;;;;5052730;28;20180;-82
2023/07/31 02:29:24;;;;;;;36.13;12.50;;;;;;;;;;5052774;28;20184;-83
2023/07/31 02:31:50;;;;;;;28.60;11.63;;;;;;;;;;5052467;28;20266;-82
2023/07/31 02:34:16;;;;;;;32.23;11.67;;;;;;;;;;5032876;28;20232;-83
2023/07/31 02:36:45;;;;;;;29.37;11.80;;;;;;;;;;5044720;28;20180;-83
2023/07/31 02:39:11;;;;;;;28.70;12.67;;;;;;;;;;5052802;28;20168;-83
2023/07/31 02:41:37;;;;;;;31.33;11.80;;;;;;;;;;5052429;28;20186;-83
2023/07/31 02:44:03;;;;;;;31.83;11.30;;;;;;;;;;5035893;28;20179;-83
2023/07/31 02:46:30;;;;;;;28.40;11.40;;;;;;;;;;5052699;28;20214;-84
2023/07/31 02:48:56;;;;;;;27.47;11.27;;;;;;;;;;5052924;28;20175;-83
2023/07/31 02:51:22;;;;;;;33.60;11.70;;;;;;;;;;5036128;28;20184;-83
2023/07/31 02:53:48;;;;;;;27.77;11.57;;;;;;;;;;5032913;28;20215;-83
2023/07/31 02:56:17;;;;;;;33.03;11.83;;;;;;;;;;5033138;28;20177;-83
2023/07/31 02:58:43;;;;;;;26.27;11.17;;;;;;;;;;5033285;28;20268;-83
2023/07/31 03:01:09;;;;;;;32.73;11.63;;;;;;;;;;5032955;28;20226;-83
2023/07/31 03:03:37;;;;;;;29.50;11.17;;;;;;;;;;5032947;28;20271;-83
2023/07/31 03:06:03;;;;;;;31.80;11.93;;;;;;;;;;5033049;28;20223;-83
2023/07/31 03:08:30;;;;;;;30.03;11.77;;;;;;;;;;5038366;28;20189;-83
2023/07/31 03:10:57;;;;;;;31.10;11.63;;;;;;;;;;5022156;28;20230;-83
2023/07/31 03:13:23;;;;;;;25.83;11.43;;;;;;;;;;5052320;28;20184;-83
2023/07/31 03:15:49;;;;;;;28.03;11.90;;;;;;;;;;5052346;28;20172;-83
2023/07/31 03:18:15;;;;;;;24.57;11.50;;;;;;;;;;5052816;28;20243;-83
2023/07/31 03:20:44;;;;;;;26.67;11.53;;;;;;;;;;5036287;28;20219;-83
2023/07/31 03:23:10;;;;;;;27.03;11.53;;;;;;;;;;5052157;28;20231;-82
2023/07/31 03:25:36;;;;;;;28.60;11.20;;;;;;;;;;5052610;28;20203;-83
2023/07/31 03:28:02;;;;;;;24.10;10.80;;;;;;;;;;5036228;28;20226;-82
2023/07/31 03:30:28;;;;;;;23.80;10.43;;;;;;;;;;5055050;28;20231;-82
2023/07/31 03:32:54;;;;;;;32.73;12.00;;;;;;;;;;5056377;28;20195;-83
2023/07/31 03:35:21;;;;;;;29.67;11.27;;;;;;;;;;5056077;28;20210;-82
2023/07/31 03:37:47;;;;;;;29.97;10.90;;;;;;;;;;5056138;28;20230;-83
2023/07/31 03:40:15;;;;;;;23.37;10.53;;;;;;;;;;5039593;28;20214;-83
2023/07/31 03:42:41;;;;;;;25.67;9.43;;;;;;;;;;5056257;28;20183;-83
2023/07/31 03:45:07;;;;;;;23.10;10.57;;;;;;;;;;5056012;28;20180;-83
2023/07/31 03:47:36;;;;;;;21.57;10.17;;;;;;;;;;5055275;28;20187;-83
2023/07/31 03:50:02;;;;;;;25.87;10.13;;;;;;;;;;5040014;28;20290;-83
2023/07/31 03:52:28;;;;;;;26.87;9.50;;;;;;;;;;5039050;28;20187;-83
2023/07/31 03:54:54;;;;;;;22.23;9.27;;;;;;;;;;5055911;28;20211;-83
2023/07/31 03:57:23;;;;;;;25.73;10.03;;;;;;;;;;5039163;28;20184;-83
2023/07/31 03:59:49;;;;;;;22.93;9.63;;;;;;;;;;5055979;28;20188;-83
2023/07/31 04:02:16;;;;;;;25.43;9.90;;;;;;;;;;5055835;28;20187;-83
2023/07/31 04:04:44;;;;;;;25.00;9.57;;;;;;;;;;5055880;28;20187;-83
2023/07/31 04:07:10;;;;;;;23.27;9.77;;;;;;;;;;5055438;28;20209;-83
2023/07/31 04:09:36;;;;;;;20.07;9.10;;;;;;;;;;5055699;28;20176;-83
2023/07/31 04:12:02;;;;;;;22.23;9.40;;;;;;;;;;5039056;28;20184;-83
2023/07/31 04:14:31;;;;;;;19.13;9.07;;;;;;;;;;5035492;28;20295;-83
2023/07/31 04:16:57;;;;;;;21.43;9.53;;;;;;;;;;5035475;28;20181;-83
2023/07/31 04:19:23;;;;;;;25.90;9.33;;;;;;;;;;5022787;28;20181;-83
2023/07/31 04:21:51;;;;;;;25.07;9.50;;;;;;;;;;5046215;28;20176;-82
2023/07/31 04:24:23;;;;;;;25.53;8.83;;;;;;;;;;5055474;28;20205;-82
2023/07/31 04:26:50;;;;;;;25.70;9.27;;;;;;;;;;5039245;28;20237;-82
2023/07/31 04:29:16;;;;;;;27.03;9.77;;;;;;;;;;5038619;28;20211;-82
2023/07/31 04:31:42;;;;;;;18.97;8.90;;;;;;;;;;5038563;28;20280;-82
2023/07/31 04:34:08;;;;;;;23.83;9.47;;;;;;;;;;5054669;28;20211;-81
2023/07/31 04:36:36;;;;;;;22.77;9.73;;;;;;;;;;5054093;28;20467;-82
2023/07/31 04:39:02;;;;;;;24.17;9.47;;;;;;;;;;5055233;28;20294;-82
2023/07/31 04:41:28;;;;;;;22.27;9.67;;;;;;;;;;5054248;28;20203;-82
2023/07/31 04:43:57;;;;;;;22.10;9.13;;;;;;;;;;5054603;28;20191;-82
2023/07/31 04:46:23;;;;;;;23.83;9.07;;;;;;;;;;5054699;28;20172;-82
2023/07/31 04:48:49;;;;;;;23.33;9.60;;;;;;;;;;5054771;28;20215;-82
2023/07/31 04:51:15;;;;;;;20.50;9.33;;;;;;;;;;5034758;28;20189;-82
2023/07/31 04:53:44;;;;;;;19.97;8.30;;;;;;;;;;5034894;28;20205;-82
2023/07/31 04:56:10;;;;;;;21.33;9.07;;;;;;;;;;5018560;28;20185;-82
2023/07/31 04:58:36;;;;;;;24.90;9.17;;;;;;;;;;5034569;28;20172;-82
2023/07/31 05:01:04;;;;;;;21.67;9.10;;;;;;;;;;5051271;28;20263;-83
2023/07/31 05:03:30;;;;;;;21.07;8.80;;;;;;;;;;5054784;28;20176;-82
2023/07/31 05:05:56;;;;;;;18.53;9.47;;;;;;;;;;5054761;28;20180;-83
2023/07/31 05:08:22;;;;;;;21.87;8.23;;;;;;;;;;5038160;28;20188;-83
2023/07/31 05:10:50;;;;;;;22.10;9.20;;;;;;;;;;5034842;28;20185;-82
2023/07/31 05:13:17;;;;;;;17.87;9.37;;;;;;;;;;5017834;28;20191;-83
2023/07/31 05:15:43;;;;;;;21.73;8.77;;;;;;;;;;5042440;28;20187;-82
2023/07/31 05:18:09;;;;;;;16.47;8.47;;;;;;;;;;5054328;28;20176;-82
2023/07/31 05:20:35;;;;;;;20.20;8.73;;;;;;;;;;5037472;28;20184;-83
2023/07/31 05:23:01;;;;;;;21.93;9.20;;;;;;;;;;5054022;28;20277;-82
2023/07/31 05:25:27;;;;;;;21.33;8.37;;;;;;;;;;5037508;28;20187;-83
2023/07/31 05:27:53;;;;;;;22.57;8.70;;;;;;;;;;5036702;28;20257;-83
2023/07/31 05:30:21;;;;;;;20.23;8.70;;;;;;;;;;5037222;28;20180;-82
2023/07/31 05:32:47;;;;;;;16.70;7.77;;;;;;;;;;5053840;28;20254;-83
2023/07/31 05:35:13;;;;;;;17.67;7.90;;;;;;;;;;5037091;28;20294;-82
2023/07/31 05:37:39;;;;;;;18.60;8.27;;;;;;;;;;5053795;28;20290;-82
2023/07/31 05:40:05;;;;;;;18.90;8.97;;;;;;;;;;5053671;28;20191;-82
2023/07/31 05:42:31;;;;;;;20.27;8.50;;;;;;;;;;5036594;28;20172;-82
2023/07/31 05:44:58;;;;;;;19.03;8.23;;;;;;;;;;5016307;28;20200;-81
2023/07/31 05:47:24;;;;;;;19.63;8.70;;;;;;;;;;5032848;28;20177;-82
2023/07/31 05:49:52;;;;;;;18.93;8.33;;;;;;;;;;5017329;28;20180;-82
2023/07/31 05:52:19;;;;;;;20.47;9.00;;;;;;;;;;5033279;28;20191;-81
2023/07/31 05:54:45;;;;;;;21.13;8.50;;;;;;;;;;5017096;28;20212;-81
2023/07/31 05:57:14;;;;;;;23.07;8.57;;;;;;;;;;5033276;28;20176;-81
2023/07/31 05:59:40;;;;;;;21.03;8.53;;;;;;;;;;5033385;28;20275;-82
2023/07/31 06:02:06;;;;;;;23.97;8.97;;;;;;;;;;5017376;28;20203;-82
2023/07/31 06:04:32;;;;;;;18.80;8.63;;;;;;;;;;5033595;28;20184;-81
2023/07/31 06:07:01;;;;;;;21.13;9.60;;;;;;;;;;5017606;28;20275;-81
2023/07/31 06:09:27;;;;;;;21.80;9.17;;;;;;;;;;5033493;28;20184;-81
2023/07/31 06:11:53;;;;;;;20.40;8.83;;;;;;;;;;5017520;28;20180;-81
2023/07/31 06:14:22;;;;;;;19.80;9.20;;;;;;;;;;5016892;28;20218;-82
2023/07/31 06:16:48;;;;;;;24.30;9.30;;;;;;;;;;5033120;28;20196;-81
2023/07/31 06:19:14;;;;;;;20.10;8.17;;;;;;;;;;5016759;28;20181;-81
2023/07/31 06:21:42;;;;;;;21.30;8.30;;;;;;;;;;5017079;28;20211;-82
2023/07/31 06:24:08;;;;;;;18.50;8.20;;;;;;;;;;5017104;28;20184;-81
2023/07/31 06:26:34;;;;;;;16.17;8.40;;;;;;;;;;5033419;28;20184;-81
2023/07/31 06:29:00;;;;;;;19.13;8.53;;;;;;;;;;5033254;28;20196;-81
2023/07/31 06:31:29;;;;;;;17.67;8.33;;;;;;;;;;5033063;28;20230;-81
2023/07/31 06:33:56;;;;;;;14.33;8.17;;;;;;;;;;5017315;28;20244;-81
2023/07/31 06:36:22;;;;;;;19.27;8.77;;;;;;;;;;5016952;28;20189;-81
2023/07/31 06:38:48;;;;;;;15.67;7.80;;;;;;;;;;5016634;28;20181;-81
2023/07/31 06:41:14;;;;;;;16.53;8.33;;;;;;;;;;5017042;28;20189;-81
2023/07/31 06:43:40;;;;;;;17.33;8.00;;;;;;;;;;5016997;28;20211;-81
2023/07/31 06:46:09;;;;;;;16.83;7.87;;;;;;;;;;5035935;28;20196;-82
2023/07/31 06:48:38;;;;;;;15.37;7.33;;;;;;;;;;5033296;28;20184;-82
2023/07/31 06:51:04;;;;;;;15.73;7.67;;;;;;;;;;5034027;28;20177;-83
2023/07/31 06:53:30;;;;;;;17.37;7.50;;;;;;;;;;5049654;28;20237;-82
2023/07/31 06:55:59;;;;;;;14.93;6.70;;;;;;;;;;5052695;28;20180;-82
2023/07/31 06:58:25;;;;;;;15.90;6.93;;;;;;;;;;5047542;28;20231;-82
2023/07/31 07:00:51;;;;;;;12.40;7.07;;;;;;;;;;5024456;28;20179;-82
2023/07/31 07:03:18;;;;;;;11.97;6.87;;;;;;;;;;5023786;28;20212;-82
2023/07/31 07:05:45;;;;;;;14.33;6.60;;;;;;;;;;5052961;28;20180;-82
2023/07/31 07:08:11;;;;;;;9.67;6.03;;;;;;;;;;5023768;28;20195;-82
2023/07/31 07:10:37;;;;;;;11.20;6.20;;;;;;;;;;5056674;28;20215;-82
2023/07/31 07:13:03;;;;;;;8.47;5.07;;;;;;;;;;5056447;28;20176;-81
2023/07/31 07:15:29;;;;;;;10.37;5.17;;;;;;;;;;5055897;28;20214;-82
2023/07/31 07:17:56;;;;;;;8.83;4.90;;;;;;;;;;5056795;28;20275;-81
2023/07/31 07:20:22;;;;;;;9.77;5.17;;;;;;;;;;5039933;28;20192;-81
2023/07/31 07:22:48;;;;;;;6.63;4.47;;;;;;;;;;5056299;28;20230;-82
2023/07/31 07:25:16;;;;;;;6.93;4.43;;;;;;;;;;5039481;28;20188;-81
2023/07/31 07:27:42;;;;;;;4.63;3.80;;;;;;;;;;5056455;28;20299;-81
2023/07/31 07:30:09;;;;;;;6.07;3.80;;;;;;;;;;5056257;28;20187;-81
2023/07/31 07:32:37;;;;;;;5.00;3.40;;;;;;;;;;5039921;28;20181;-81
2023/07/31 07:35:03;;;;;;;5.70;3.33;;;;;;;;;;5055814;28;20222;-81
2023/07/31 07:37:29;;;;;;;4.63;3.50;;;;;;;;;;5055684;28;20172;-81
2023/07/31 07:39:57;;;;;;;4.60;2.87;;;;;;;;;;5039453;28;20202;-82
2023/07/31 07:42:24;;;;;;;4.20;2.47;;;;;;;;;;5039246;28;20192;-81
2023/07/31 07:44:50;;;;;;;5.33;2.80;;;;;;;;;;5056097;28;20188;-82
2023/07/31 07:47:16;;;;;;;4.73;2.50;;;;;;;;;;5056131;28;20180;-82
2023/07/31 07:49:44;;;;;;;3.40;2.43;;;;;;;;;;5055726;28;20207;-82
2023/07/31 07:52:10;;;;;;;3.27;2.47;;;;;;;;;;5056058;28;20230;-83
2023/07/31 07:54:36;;;;;;;3.67;2.80;;;;;;;;;;5039311;28;20215;-82
2023/07/31 07:57:03;;;;;;;3.30;2.30;;;;;;;;;;5039532;28;20200;-81
2023/07/31 07:59:29;;;;;;;5.03;2.57;;;;;;;;;;5055959;28;20203;-80
2023/07/31 08:01:55;;;;;;;3.53;2.60;;;;;;;;;;5055500;28;20175;-81
2023/07/31 08:04:21;;;;;;;2.80;2.23;;;;;;;;;;5039151;28;20188;-81
2023/07/31 08:06:47;;;;;;;2.90;2.50;;;;;;;;;;5039075;28;20184;-81
2023/07/31 08:09:13;;;;;;;2.67;2.33;;;;;;;;;;5055504;28;20223;-82
2023/07/31 08:11:39;;;;;;;3.07;2.67;;;;;;;;;;5039551;28;20191;-81
2023/07/31 08:14:05;;;;;;;4.00;2.60;;;;;;;;;;5038915;28;20298;-82
2023/07/31 08:16:31;;;;;;;3.67;3.03;;;;;;;;;;5054484;28;20180;-81
2023/07/31 08:18:57;;;;;;;3.67;3.10;;;;;;;;;;5055468;28;20181;-81
2023/07/31 08:21:23;;;;;;;3.30;3.00;;;;;;;;;;5055841;28;20176;-81
2023/07/31 08:23:49;;;;;;;4.47;3.17;;;;;;;;;;5038563;28;20242;-81
2023/07/31 08:26:22;;;;;;;4.10;3.47;;;;;;;;;;5054710;28;20176;-81
2023/07/31 08:28:48;;;;;;;4.00;3.60;;;;;;;;;;5054940;28;20203;-81
2023/07/31 08:31:14;;;;;;;5.27;3.70;;;;;;;;;;5038483;28;20184;-81
2023/07/31 08:33:40;;;;;;;4.33;3.93;;;;;;;;;;5055337;28;20223;-82
2023/07/31 08:36:09;;;;;;;4.30;3.90;;;;;;;;;;5038444;28;20179;-82
2023/07/31 08:38:35;;;;;;;4.63;4.03;;;;;;;;;;5038908;28;20184;-83
2023/07/31 08:41:01;;;;;;;4.97;3.83;;;;;;;;;;5055073;28;20237;-83
2023/07/31 08:43:27;;;;;;;4.50;4.10;;;;;;;;;;5055010;28;20176;-82
2023/07/31 08:45:54;;;;;;;5.43;4.27;;;;;;;;;;5055185;28;20180;-82
2023/07/31 08:48:21;;;;;;;5.07;4.57;;;;;;;;;;5055103;28;20207;-83
2023/07/31 08:50:47;;;;;;;6.03;4.50;;;;;;;;;;5054988;28;20187;-83
2023/07/31 08:53:17;;;;;;;5.07;4.30;;;;;;;;;;5054797;28;20179;-82
2023/07/31 08:55:43;;;;;;;5.13;4.60;;;;;;;;;;5054637;28;20640;-82
2023/07/31 08:58:14;;;;;;;5.10;4.70;;;;;;;;;;5054539;28;20235;-83
2023/07/31 09:00:40;;;;;;;5.80;4.60;;;;;;;;;;5054665;28;20232;-82
2023/07/31 09:03:12;;;;;;;7.23;4.20;;;;;;;;;;5038110;28;20198;-82
2023/07/31 09:05:39;;;;;;;5.13;4.63;;;;;;;;;;5054808;28;20180;-82
2023/07/31 09:08:06;;;;;;;5.17;4.43;;;;;;;;;;5054660;28;20184;-82
2023/07/31 09:10:35;;;;;;;6.87;4.80;;;;;;;;;;5034385;28;20192;-82
2023/07/31 09:13:01;;;;;;;4.83;4.43;;;;;;;;;;5017263;28;20227;-83
2023/07/31 09:15:28;;;;;;;5.40;4.90;;;;;;;;;;5033346;28;20239;-83
2023/07/31 09:18:01;;;;;;;4.73;4.33;;;;;;;;;;5033421;28;20181;-83
2023/07/31 09:20:27;;;;;;;5.37;4.87;;;;;;;;;;5016733;28;20189;-83
2023/07/31 09:22:56;;;;;;;5.47;4.97;;;;;;;;;;5032535;28;20229;-83
2023/07/31 09:25:23;;;;;;;5.30;4.80;;;;;;;;;;5033037;28;20196;-83
2023/07/31 09:27:57;;;;;;;6.70;5.33;;;;;;;;;;5033103;28;20203;-83
2023/07/31 09:30:24;;;;;;;6.47;5.50;;;;;;;;;;5033825;28;20469;-83
2023/07/31 09:32:51;;;;;;;8.30;5.97;;;;;;;;;;5033699;28;20177;-81
2023/07/31 09:35:17;;;;;;;6.90;6.10;;;;;;;;;;5033593;28;20310;-81
2023/07/31 09:37:43;;;;;;;8.03;6.50;;;;;;;;;;5033729;28;20208;-81
2023/07/31 09:40:09;;;;;;;8.77;6.30;;;;;;;;;;5017009;28;20203;-81
2023/07/31 09:42:37;;;;;;;7.33;6.63;;;;;;;;;;5017427;28;20181;-82
2023/07/31 09:45:09;;;;;;;8.17;7.30;;;;;;;;;;5033593;28;20176;-81
2023/07/31 09:47:38;;;;;;;8.33;7.53;;;;;;;;;;5017096;28;20233;-82
2023/07/31 09:50:08;;;;;;;8.90;6.93;;;;;;;;;;5033116;28;20176;-82
2023/07/31 09:52:34;;;;;;;10.37;7.70;;;;;;;;;;5033310;28;20277;-81
2023/07/31 09:55:00;;;;;;;9.50;8.13;;;;;;;;;;5033213;28;20208;-81
2023/07/31 09:57:27;;;;;;;9.60;8.10;;;;;;;;;;5017037;28;20200;-82
2023/07/31 10:00:46;;;;;;;9.67;8.70;;;;;;;;;;5034125;28;20188;-94
2023/07/31 10:06:18;;;;;;;9.70;8.43;;;;;;;;;;4999551;28;20213;-95
2023/07/31 10:15:11;;;;;;;10.10;9.00;;;;;;;;;;5006284;28;20230;-94
2023/07/31 10:21:41;;;;;;;;;;;;;;;;;;;;;
2023/07/31 10:24:16;;;;;;;12.37;9.80;;;;;;;;;;4991123;28;20220;-92
2023/07/31 10:27:22;;;;;;;;;;;;;;;;;;;;;
2023/07/31 10:36:19;;;;;;;10.83;9.73;;;;;;;;;;5053073;28;20184;-91
2023/07/31 10:39:01;;;;;;;11.43;9.13;;;;;;;;;;5030243;28;20183;-91
2023/07/31 10:51:10;;;;;;;13.50;9.93;;;;;;;;;;5003763;28;20182;-92
2023/07/31 10:53:38;;;;;;;11.03;9.87;;;;;;;;;;5012001;28;20181;-90
2023/07/31 10:56:13;;;;;;;11.23;9.90;;;;;;;;;;5042443;28;20240;-93
2023/07/31 10:58:54;;;;;;;;;;;;;;;;;;;;;
2023/07/31 11:04:55;;;;;;;11.57;9.77;;;;;;;;;;5038841;28;20180;-94
2023/07/31 11:07:43;;;;;;;10.70;9.03;;;;;;;;;;5030502;28;20176;-89
2023/07/31 11:10:24;;;;;;;;;;;;;;;;;;;;;
2023/07/31 11:13:07;;;;;;;13.23;9.83;;;;;;;;;;5043798;28;20181;-92
2023/07/31 11:15:36;;;;;;;12.13;8.97;;;;;;;;;;5032684;28;20291;-91
2023/07/31 11:18:26;;;;;;;12.80;9.47;;;;;;;;;;5033360;28;20200;-92
2023/07/31 11:24:16;;;;;;;11.20;9.90;;;;;;;;;;4955073;28;20305;-93
2023/07/31 11:26:53;;;;;;;11.50;10.10;;;;;;;;;;4956786;28;20250;-94
2023/07/31 11:29:36;;;;;;;11.73;9.67;;;;;;;;;;4957094;28;20202;-95
2023/07/31 11:32:03;;;;;;;10.97;9.87;;;;;;;;;;4999815;28;20184;-92
2023/07/31 11:35:34;;;;;;;12.73;9.70;;;;;;;;;;5036376;28;20219;-94
2023/07/31 11:38:53;;;;;;;;;;;;;;;;;;;;;
2023/07/31 11:44:08;;;;;;;10.63;8.70;;;;;;;;;;4994891;28;20185;-94
2023/07/31 11:55:51;;;;;;;9.50;7.57;;;;;;;;;;4938189;29;20341;-92
2023/07/31 11:58:18;;;;;;;11.27;8.67;;;;;;;;;;4953276;28;20182;-93
2023/07/31 12:00:53;;;;;;;13.60;8.73;;;;;;;;;;4976355;28;20181;-91
2023/07/31 12:03:19;;;;;;;9.33;8.20;;;;;;;;;;5000864;28;20211;-92
2023/07/31 12:05:50;;;;;;;11.00;8.90;;;;;;;;;;5037642;28;20180;-92
2023/07/31 12:08:28;;;;;;;12.80;8.67;;;;;;;;;;5036847;28;20183;-90
2023/07/31 12:10:54;;;;;;;12.27;8.57;;;;;;;;;;5035383;28;20263;-91
2023/07/31 12:13:29;;;;;;;9.27;7.70;;;;;;;;;;5035442;28;20240;-94
2023/07/31 12:16:03;;;;;;;10.27;7.87;;;;;;;;;;5035515;28;20210;-92
2023/07/31 12:18:36;;;;;;;10.50;6.93;;;;;;;;;;5035317;28;20176;-91
2023/07/31 12:21:07;;;;;;;15.10;7.90;;;;;;;;;;5035847;28;20173;-93
2023/07/31 12:23:34;;;;;;;8.70;7.17;;;;;;;;;;5036114;28;20250;-93
2023/07/31 12:26:12;;;;;;;9.43;7.50;;;;;;;;;;5035594;28;20173;-90
2023/07/31 12:28:45;;;;;;;8.93;7.57;;;;;;;;;;5019484;28;20201;-91
2023/07/31 12:31:36;;;;;;;8.33;7.30;;;;;;;;;;5035948;28;20173;-92
2023/07/31 12:34:08;;;;;;;9.77;8.00;;;;;;;;;;5036183;28;20209;-91
2023/07/31 12:36:48;;;;;;;9.37;8.03;;;;;;;;;;5034581;28;20169;-93
2023/07/31 12:42:30;;;;;;;13.00;8.30;;;;;;;;;;5039567;28;20176;-91
2023/07/31 12:45:02;;;;;;;10.03;8.13;;;;;;;;;;4978711;28;20178;-92
2023/07/31 12:47:31;;;;;;;9.57;8.47;;;;;;;;;;4978491;28;20182;-93
2023/07/31 12:50:04;;;;;;;11.87;9.40;;;;;;;;;;5035076;28;20265;-92
2023/07/31 12:52:38;;;;;;;10.17;9.13;;;;;;;;;;5035652;28;20184;-90
2023/07/31 12:55:04;;;;;;;9.73;8.57;;;;;;;;;;5019408;28;20275;-93
2023/07/31 12:57:38;;;;;;;10.93;8.93;;;;;;;;;;5034866;28;20173;-91
2023/07/31 13:00:04;;;;;;;10.60;9.30;;;;;;;;;;5035253;28;20169;-93
2023/07/31 13:02:33;;;;;;;10.93;9.77;;;;;;;;;;5034509;28;20176;-91
2023/07/31 13:04:59;;;;;;;11.83;10.30;;;;;;;;;;5048563;28;20191;-91
2023/07/31 13:07:25;;;;;;;10.77;9.77;;;;;;;;;;5054793;28;20183;-91
2023/07/31 13:09:52;;;;;;;12.50;10.20;;;;;;;;;;5054729;28;20184;-90
2023/07/31 13:12:23;;;;;;;11.77;10.27;;;;;;;;;;5055434;28;20203;-93
2023/07/31 13:14:58;;;;;;;11.13;9.30;;;;;;;;;;5055483;28;20294;-94
2023/07/31 13:17:29;;;;;;;9.93;8.77;;;;;;;;;;5054938;28;20186;-91
2023/07/31 13:19:59;;;;;;;12.23;9.60;;;;;;;;;;5054409;28;20215;-93
2023/07/31 13:22:28;;;;;;;14.27;9.23;;;;;;;;;;5054276;28;20228;-90
2023/07/31 13:25:14;;;;;;;10.50;9.07;;;;;;;;;;5054564;28;20188;-91
2023/07/31 13:27:46;;;;;;;9.80;8.80;;;;;;;;;;5038214;28;20280;-92
2023/07/31 13:30:14;;;;;;;10.27;8.53;;;;;;;;;;5054357;28;20203;-91
2023/07/31 13:32:53;;;;;;;;;;;;;;;;;;;;;
2023/07/31 13:35:20;;;;;;;10.87;8.10;;;;;;;;;;5055936;28;20218;-92
2023/07/31 13:37:49;;;;;;;11.90;8.57;;;;;;;;;;5054886;28;20207;-93
2023/07/31 13:40:18;;;;;;;8.00;6.90;;;;;;;;;;5053961;28;20176;-92
2023/07/31 13:42:55;;;;;;;8.47;7.03;;;;;;;;;;5053864;28;20172;-91
2023/07/31 13:45:30;;;;;;;7.93;6.60;;;;;;;;;;5053913;28;20176;-91
2023/07/31 13:47:59;;;;;;;9.40;6.87;;;;;;;;;;5053179;28;20293;-91
2023/07/31 13:50:28;;;;;;;7.33;6.60;;;;;;;;;;5037228;28;20199;-89
2023/07/31 13:53:03;;;;;;;8.10;7.30;;;;;;;;;;5037791;28;20188;-92
2023/07/31 13:55:32;;;;;;;9.10;6.77;;;;;;;;;;5053503;28;20199;-91
2023/07/31 13:57:58;;;;;;;8.90;6.27;;;;;;;;;;5053853;28;20204;-89
2023/07/31 14:00:30;;;;;;;8.87;6.13;;;;;;;;;;5053823;28;20192;-92
2023/07/31 14:02:56;;;;;;;8.57;6.40;;;;;;;;;;5053521;28;20183;-91
2023/07/31 14:05:22;;;;;;;11.30;7.07;;;;;;;;;;5053472;28;20190;-90
2023/07/31 14:07:48;;;;;;;8.53;7.63;;;;;;;;;;5053514;28;20196;-91
2023/07/31 14:10:17;;;;;;;7.93;7.00;;;;;;;;;;5053671;28;20191;-91
2023/07/31 14:13:03;;;;;;;13.67;7.87;;;;;;;;;;5054507;28;20246;-91
2023/07/31 14:15:29;;;;;;;9.27;7.63;;;;;;;;;;5052553;28;20214;-91
2023/07/31 14:18:16;;;;;;;9.67;7.50;;;;;;;;;;5053648;28;20176;-92
2023/07/31 14:20:49;;;;;;;11.00;7.90;;;;;;;;;;5053977;28;20207;-91
2023/07/31 14:23:23;;;;;;;9.20;7.70;;;;;;;;;;5037465;28;20231;-90
2023/07/31 14:25:49;;;;;;;11.33;7.97;;;;;;;;;;5053672;28;20263;-93
2023/07/31 14:28:15;;;;;;;11.37;7.87;;;;;;;;;;5052975;28;20236;-90
2023/07/31 14:30:47;;;;;;;9.90;8.43;;;;;;;;;;5053214;28;20184;-92
2023/07/31 14:33:20;;;;;;;10.60;8.43;;;;;;;;;;5052859;28;20210;-90
2023/07/31 14:36:04;;;;;;;13.83;8.40;;;;;;;;;;5036236;28;20223;-91
2023/07/31 14:38:33;;;;;;;12.13;7.90;;;;;;;;;;5036277;28;20214;-92
2023/07/31 14:40:59;;;;;;;12.70;8.60;;;;;;;;;;5049590;28;20184;-90
2023/07/31 14:43:33;;;;;;;10.73;7.73;;;;;;;;;;5050566;28;20197;-91
2023/07/31 14:46:02;;;;;;;13.57;8.50;;;;;;;;;;5052350;28;20172;-90
2023/07/31 14:48:31;;;;;;;14.27;8.83;;;;;;;;;;5046637;28;20180;-89
2023/07/31 14:51:17;;;;;;;10.07;7.80;;;;;;;;;;5049200;28;20172;-93
2023/07/31 14:53:47;;;;;;;10.90;7.77;;;;;;;;;;5046206;28;20179;-92
2023/07/31 14:56:18;;;;;;;9.83;7.57;;;;;;;;;;5043029;28;20188;-90
2023/07/31 14:59:02;;;;;;;;;;;;;;;;;;;;;
2023/07/31 15:01:29;;;;;;;10.53;8.17;;;;;;;;;;5046291;28;20188;-92
2023/07/31 15:03:55;;;;;;;12.73;8.67;;;;;;;;;;5043946;28;20256;-91
2023/07/31 15:06:21;;;;;;;11.10;8.47;;;;;;;;;;5044563;28;20215;-91
2023/07/31 15:09:13;;;;;;;11.73;8.07;;;;;;;;;;5047963;28;20187;-92
2023/07/31 15:11:39;;;;;;;11.90;8.17;;;;;;;;;;5053119;28;20252;-93
2023/07/31 15:14:05;;;;;;;9.93;7.87;;;;;;;;;;5053264;28;20227;-91
2023/07/31 15:16:34;;;;;;;12.23;7.73;;;;;;;;;;5044130;28;20271;-90
2023/07/31 15:19:03;;;;;;;10.03;7.63;;;;;;;;;;5016965;28;20172;-91
2023/07/31 15:21:29;;;;;;;11.80;8.17;;;;;;;;;;5032909;28;20185;-93
2023/07/31 15:24:00;;;;;;;11.33;7.43;;;;;;;;;;5037535;28;20269;-90
2023/07/31 15:26:34;;;;;;;9.53;7.13;;;;;;;;;;5038736;28;20180;-92
2023/07/31 15:29:17;;;;;;;11.87;7.60;;;;;;;;;;5056621;28;20221;-91
2023/07/31 15:31:46;;;;;;;9.40;6.80;;;;;;;;;;5056513;28;20306;-93
2023/07/31 15:34:21;;;;;;;12.67;7.17;;;;;;;;;;5056496;28;20291;-92
2023/07/31 15:39:46;;;;;;;10.10;6.53;;;;;;;;;;5053836;28;20187;-92
2023/07/31 15:42:43;;;;;;;;;;;;;;;;;;;;;
2023/07/31 15:48:39;;;;;;;8.67;6.23;;;;;;;;;;5016487;28;20184;-93